sensor_id;sensor_type;location;lat;lon;timestamp;P1;durP1;ratioP1;P2;durP2;ratioP2
3299;SDS011;1662;49.310;8.134;2022-08-19T00:01:53;21.47;;;19.57;;
3299;SDS011;1662;49.310;8.134;2022-08-19T00:04:22;25.80;;;23.40;;
3299;SDS011;1662;49.310;8.134;2022-08-19T00:06:54;24.70;;;22.20;;
3299;SDS011;1662;49.310;8.134;2022-08-19T00:09:21;26.30;;;23.50;;
3299;SDS011;1662;49.310;8.134;2022-08-19T00:11:48;24.43;;;22.07;;
3299;SDS011;1662;49.310;8.134;2022-08-19T00:14:15;25.10;;;22.60;;
3299;SDS011;1662;49.310;8.134;2022-08-19T00:16:43;24.03;;;21.67;;
3299;SDS011;1662;49.310;8.134;2022-08-19T00:19:12;24.80;;;22.40;;
3299;SDS011;1662;49.310;8.134;2022-08-19T00:21:39;23.93;;;21.50;;
3299;SDS011;1662;49.310;8.134;2022-08-19T00:24:08;22.87;;;20.77;;
3299;SDS011;1662;49.310;8.134;2022-08-19T00:26:35;24.20;;;21.70;;
3299;SDS011;1662;49.310;8.134;2022-08-19T00:29:05;24.73;;;22.33;;
3299;SDS011;1662;49.310;8.134;2022-08-19T00:31:31;24.50;;;22.17;;
3299;SDS011;1662;49.310;8.134;2022-08-19T00:33:57;24.20;;;21.90;;
3299;SDS011;1662;49.310;8.134;2022-08-19T00:36:23;23.60;;;21.20;;
3299;SDS011;1662;49.310;8.134;2022-08-19T00:38:49;25.30;;;22.57;;
3299;SDS011;1662;49.310;8.134;2022-08-19T00:41:18;23.87;;;21.57;;
3299;SDS011;1662;49.310;8.134;2022-08-19T00:46:30;25.00;;;22.43;;
3299;SDS011;1662;49.310;8.134;2022-08-19T00:48:57;24.60;;;22.30;;
3299;SDS011;1662;49.310;8.134;2022-08-19T00:51:28;23.27;;;21.17;;
3299;SDS011;1662;49.310;8.134;2022-08-19T00:53:55;24.27;;;22.00;;
3299;SDS011;1662;49.310;8.134;2022-08-19T00:56:22;24.30;;;22.00;;
3299;SDS011;1662;49.310;8.134;2022-08-19T00:58:48;22.67;;;20.53;;
3299;SDS011;1662;49.310;8.134;2022-08-19T01:01:14;23.77;;;21.33;;
3299;SDS011;1662;49.310;8.134;2022-08-19T01:03:43;24.07;;;21.77;;
3299;SDS011;1662;49.310;8.134;2022-08-19T01:06:08;25.23;;;22.57;;
3299;SDS011;1662;49.310;8.134;2022-08-19T01:08:36;24.47;;;22.00;;
3299;SDS011;1662;49.310;8.134;2022-08-19T01:11:02;23.93;;;21.37;;
3299;SDS011;1662;49.310;8.134;2022-08-19T01:13:30;24.23;;;21.90;;
3299;SDS011;1662;49.310;8.134;2022-08-19T01:16:00;24.47;;;22.10;;
3299;SDS011;1662;49.310;8.134;2022-08-19T01:18:28;22.53;;;20.43;;
3299;SDS011;1662;49.310;8.134;2022-08-19T01:20:58;23.53;;;21.13;;
3299;SDS011;1662;49.310;8.134;2022-08-19T01:23:31;25.03;;;22.77;;
3299;SDS011;1662;49.310;8.134;2022-08-19T01:26:16;26.60;;;23.80;;
3299;SDS011;1662;49.310;8.134;2022-08-19T01:28:44;23.90;;;21.60;;
3299;SDS011;1662;49.310;8.134;2022-08-19T01:31:16;24.70;;;22.33;;
3299;SDS011;1662;49.310;8.134;2022-08-19T01:33:48;24.80;;;22.40;;
3299;SDS011;1662;49.310;8.134;2022-08-19T01:36:16;25.67;;;23.17;;
3299;SDS011;1662;49.310;8.134;2022-08-19T01:38:52;23.67;;;21.43;;
3299;SDS011;1662;49.310;8.134;2022-08-19T01:41:21;24.03;;;21.60;;
3299;SDS011;1662;49.310;8.134;2022-08-19T01:43:48;25.80;;;23.27;;
3299;SDS011;1662;49.310;8.134;2022-08-19T01:46:18;24.10;;;21.77;;
3299;SDS011;1662;49.310;8.134;2022-08-19T01:48:44;23.00;;;20.80;;
3299;SDS011;1662;49.310;8.134;2022-08-19T01:51:12;24.03;;;21.63;;
3299;SDS011;1662;49.310;8.134;2022-08-19T01:53:39;25.10;;;22.60;;
3299;SDS011;1662;49.310;8.134;2022-08-19T01:56:05;25.57;;;22.93;;
3299;SDS011;1662;49.310;8.134;2022-08-19T01:58:33;25.87;;;23.37;;
3299;SDS011;1662;49.310;8.134;2022-08-19T02:01:06;27.77;;;24.97;;
3299;SDS011;1662;49.310;8.134;2022-08-19T02:03:32;26.97;;;24.17;;
3299;SDS011;1662;49.310;8.134;2022-08-19T02:06:00;25.77;;;23.10;;
3299;SDS011;1662;49.310;8.134;2022-08-19T02:08:30;27.30;;;24.50;;
3299;SDS011;1662;49.310;8.134;2022-08-19T02:10:57;25.57;;;22.93;;
3299;SDS011;1662;49.310;8.134;2022-08-19T02:13:22;23.93;;;21.23;;
3299;SDS011;1662;49.310;8.134;2022-08-19T02:15:49;24.63;;;22.20;;
3299;SDS011;1662;49.310;8.134;2022-08-19T02:18:14;24.83;;;22.13;;
3299;SDS011;1662;49.310;8.134;2022-08-19T02:20:41;24.83;;;22.47;;
3299;SDS011;1662;49.310;8.134;2022-08-19T02:23:12;26.70;;;23.87;;
3299;SDS011;1662;49.310;8.134;2022-08-19T02:25:41;25.97;;;23.40;;
3299;SDS011;1662;49.310;8.134;2022-08-19T02:28:09;23.80;;;21.23;;
3299;SDS011;1662;49.310;8.134;2022-08-19T02:30:34;25.47;;;23.03;;
3299;SDS011;1662;49.310;8.134;2022-08-19T02:33:00;25.73;;;23.23;;
3299;SDS011;1662;49.310;8.134;2022-08-19T02:35:26;23.00;;;20.80;;
3299;SDS011;1662;49.310;8.134;2022-08-19T02:37:51;24.57;;;21.97;;
3299;SDS011;1662;49.310;8.134;2022-08-19T02:40:35;21.13;;;19.23;;
3299;SDS011;1662;49.310;8.134;2022-08-19T02:43:02;23.10;;;20.97;;
3299;SDS011;1662;49.310;8.134;2022-08-19T02:45:36;22.37;;;20.27;;
3299;SDS011;1662;49.310;8.134;2022-08-19T02:48:04;24.33;;;22.03;;
3299;SDS011;1662;49.310;8.134;2022-08-19T02:50:30;25.63;;;23.23;;
3299;SDS011;1662;49.310;8.134;2022-08-19T02:52:58;23.97;;;21.60;;
3299;SDS011;1662;49.310;8.134;2022-08-19T02:55:26;23.90;;;21.60;;
3299;SDS011;1662;49.310;8.134;2022-08-19T02:57:52;22.57;;;20.30;;
3299;SDS011;1662;49.310;8.134;2022-08-19T03:00:17;19.03;;;17.43;;
3299;SDS011;1662;49.310;8.134;2022-08-19T03:02:43;21.70;;;19.70;;
3299;SDS011;1662;49.310;8.134;2022-08-19T03:05:09;24.00;;;21.60;;
3299;SDS011;1662;49.310;8.134;2022-08-19T03:07:36;27.33;;;21.23;;
3299;SDS011;1662;49.310;8.134;2022-08-19T03:10:02;23.33;;;21.27;;
3299;SDS011;1662;49.310;8.134;2022-08-19T03:12:28;22.93;;;20.83;;
3299;SDS011;1662;49.310;8.134;2022-08-19T03:14:54;21.83;;;19.63;;
3299;SDS011;1662;49.310;8.134;2022-08-19T03:17:20;23.00;;;20.80;;
3299;SDS011;1662;49.310;8.134;2022-08-19T03:19:48;22.90;;;20.60;;
3299;SDS011;1662;49.310;8.134;2022-08-19T03:22:13;21.40;;;19.30;;
3299;SDS011;1662;49.310;8.134;2022-08-19T03:24:39;22.50;;;20.40;;
3299;SDS011;1662;49.310;8.134;2022-08-19T03:27:05;21.87;;;19.57;;
3299;SDS011;1662;49.310;8.134;2022-08-19T03:29:31;21.77;;;19.67;;
3299;SDS011;1662;49.310;8.134;2022-08-19T03:31:58;19.60;;;17.60;;
3299;SDS011;1662;49.310;8.134;2022-08-19T03:34:26;20.83;;;18.90;;
3299;SDS011;1662;49.310;8.134;2022-08-19T03:36:54;21.73;;;19.63;;
3299;SDS011;1662;49.310;8.134;2022-08-19T03:39:22;20.77;;;18.80;;
3299;SDS011;1662;49.310;8.134;2022-08-19T03:41:51;21.03;;;19.13;;
3299;SDS011;1662;49.310;8.134;2022-08-19T03:44:20;18.70;;;17.03;;
3299;SDS011;1662;49.310;8.134;2022-08-19T03:46:48;20.73;;;18.73;;
3299;SDS011;1662;49.310;8.134;2022-08-19T03:49:20;21.67;;;19.47;;
3299;SDS011;1662;49.310;8.134;2022-08-19T03:51:47;20.40;;;18.50;;
3299;SDS011;1662;49.310;8.134;2022-08-19T03:54:19;20.23;;;18.17;;
3299;SDS011;1662;49.310;8.134;2022-08-19T03:56:48;20.07;;;18.27;;
3299;SDS011;1662;49.310;8.134;2022-08-19T03:59:17;22.77;;;18.80;;
3299;SDS011;1662;49.310;8.134;2022-08-19T04:01:45;20.53;;;18.63;;
3299;SDS011;1662;49.310;8.134;2022-08-19T04:04:11;21.43;;;19.57;;
3299;SDS011;1662;49.310;8.134;2022-08-19T04:06:37;22.50;;;20.33;;
3299;SDS011;1662;49.310;8.134;2022-08-19T04:09:05;21.17;;;19.37;;
3299;SDS011;1662;49.310;8.134;2022-08-19T04:11:34;20.17;;;18.30;;
3299;SDS011;1662;49.310;8.134;2022-08-19T04:14:16;23.30;;;19.90;;
3299;SDS011;1662;49.310;8.134;2022-08-19T04:16:44;18.77;;;17.07;;
3299;SDS011;1662;49.310;8.134;2022-08-19T04:19:11;19.83;;;17.97;;
3299;SDS011;1662;49.310;8.134;2022-08-19T04:21:40;22.40;;;20.43;;
3299;SDS011;1662;49.310;8.134;2022-08-19T04:24:10;27.80;;;18.43;;
3299;SDS011;1662;49.310;8.134;2022-08-19T04:26:36;19.47;;;17.80;;
3299;SDS011;1662;49.310;8.134;2022-08-19T04:31:58;20.53;;;18.33;;
3299;SDS011;1662;49.310;8.134;2022-08-19T04:34:25;18.60;;;16.83;;
3299;SDS011;1662;49.310;8.134;2022-08-19T04:36:56;20.13;;;17.90;;
3299;SDS011;1662;49.310;8.134;2022-08-19T04:39:24;18.00;;;16.30;;
3299;SDS011;1662;49.310;8.134;2022-08-19T04:42:14;17.17;;;15.63;;
3299;SDS011;1662;49.310;8.134;2022-08-19T04:44:59;18.73;;;17.13;;
3299;SDS011;1662;49.310;8.134;2022-08-19T04:47:25;17.90;;;16.30;;
3299;SDS011;1662;49.310;8.134;2022-08-19T04:49:51;19.87;;;18.00;;
3299;SDS011;1662;49.310;8.134;2022-08-19T04:52:17;18.83;;;17.23;;
3299;SDS011;1662;49.310;8.134;2022-08-19T04:54:42;19.50;;;17.63;;
3299;SDS011;1662;49.310;8.134;2022-08-19T04:57:10;19.27;;;17.43;;
3299;SDS011;1662;49.310;8.134;2022-08-19T04:59:37;18.50;;;16.80;;
3299;SDS011;1662;49.310;8.134;2022-08-19T05:02:03;18.17;;;16.67;;
3299;SDS011;1662;49.310;8.134;2022-08-19T05:04:33;19.00;;;17.27;;
3299;SDS011;1662;49.310;8.134;2022-08-19T05:06:59;20.97;;;18.90;;
3299;SDS011;1662;49.310;8.134;2022-08-19T05:09:30;17.23;;;15.63;;
3299;SDS011;1662;49.310;8.134;2022-08-19T05:11:58;18.37;;;16.80;;
3299;SDS011;1662;49.310;8.134;2022-08-19T05:14:27;18.20;;;16.43;;
3299;SDS011;1662;49.310;8.134;2022-08-19T05:16:53;16.30;;;14.80;;
3299;SDS011;1662;49.310;8.134;2022-08-19T05:19:19;18.57;;;16.67;;
3299;SDS011;1662;49.310;8.134;2022-08-19T05:22:03;17.10;;;15.70;;
3299;SDS011;1662;49.310;8.134;2022-08-19T05:24:47;18.13;;;16.43;;
3299;SDS011;1662;49.310;8.134;2022-08-19T05:27:13;18.10;;;16.50;;
3299;SDS011;1662;49.310;8.134;2022-08-19T05:29:39;18.60;;;16.90;;
3299;SDS011;1662;49.310;8.134;2022-08-19T05:32:05;16.43;;;14.83;;
3299;SDS011;1662;49.310;8.134;2022-08-19T05:34:35;15.27;;;13.80;;
3299;SDS011;1662;49.310;8.134;2022-08-19T05:37:03;13.50;;;12.30;;
3299;SDS011;1662;49.310;8.134;2022-08-19T05:39:30;15.87;;;14.50;;
3299;SDS011;1662;49.310;8.134;2022-08-19T05:42:00;15.50;;;14.10;;
3299;SDS011;1662;49.310;8.134;2022-08-19T05:44:37;17.13;;;15.53;;
3299;SDS011;1662;49.310;8.134;2022-08-19T05:47:08;15.77;;;14.40;;
3299;SDS011;1662;49.310;8.134;2022-08-19T05:49:34;16.73;;;15.23;;
3299;SDS011;1662;49.310;8.134;2022-08-19T05:52:02;16.83;;;15.43;;
3299;SDS011;1662;49.310;8.134;2022-08-19T05:54:30;17.37;;;15.60;;
3299;SDS011;1662;49.310;8.134;2022-08-19T05:56:56;14.27;;;13.07;;
3299;SDS011;1662;49.310;8.134;2022-08-19T05:59:22;15.30;;;14.00;;
3299;SDS011;1662;49.310;8.134;2022-08-19T06:01:49;14.40;;;13.10;;
3299;SDS011;1662;49.310;8.134;2022-08-19T06:04:17;15.90;;;14.50;;
3299;SDS011;1662;49.310;8.134;2022-08-19T06:06:45;17.20;;;15.80;;
3299;SDS011;1662;49.310;8.134;2022-08-19T06:09:12;14.83;;;13.43;;
3299;SDS011;1662;49.310;8.134;2022-08-19T06:14:18;14.67;;;13.27;;
3299;SDS011;1662;49.310;8.134;2022-08-19T06:16:46;17.43;;;15.77;;
3299;SDS011;1662;49.310;8.134;2022-08-19T06:19:14;16.80;;;15.23;;
3299;SDS011;1662;49.310;8.134;2022-08-19T06:21:42;14.00;;;12.70;;
3299;SDS011;1662;49.310;8.134;2022-08-19T06:24:09;14.13;;;13.03;;
3299;SDS011;1662;49.310;8.134;2022-08-19T06:26:39;14.07;;;12.93;;
3299;SDS011;1662;49.310;8.134;2022-08-19T06:29:07;14.70;;;13.43;;
3299;SDS011;1662;49.310;8.134;2022-08-19T06:31:34;16.10;;;14.67;;
3299;SDS011;1662;49.310;8.134;2022-08-19T06:34:02;12.80;;;11.80;;
3299;SDS011;1662;49.310;8.134;2022-08-19T06:36:30;15.60;;;13.97;;
3299;SDS011;1662;49.310;8.134;2022-08-19T06:39:06;15.73;;;14.43;;
3299;SDS011;1662;49.310;8.134;2022-08-19T06:41:35;14.33;;;13.10;;
3299;SDS011;1662;49.310;8.134;2022-08-19T06:44:09;13.90;;;12.70;;
3299;SDS011;1662;49.310;8.134;2022-08-19T06:46:38;14.23;;;13.03;;
3299;SDS011;1662;49.310;8.134;2022-08-19T06:49:05;16.47;;;14.77;;
3299;SDS011;1662;49.310;8.134;2022-08-19T06:51:35;16.07;;;14.37;;
3299;SDS011;1662;49.310;8.134;2022-08-19T06:54:00;13.13;;;11.97;;
3299;SDS011;1662;49.310;8.134;2022-08-19T06:56:28;16.53;;;15.10;;
3299;SDS011;1662;49.310;8.134;2022-08-19T06:58:57;14.33;;;13.13;;
3299;SDS011;1662;49.310;8.134;2022-08-19T07:01:23;15.17;;;13.77;;
3299;SDS011;1662;49.310;8.134;2022-08-19T07:03:48;14.90;;;13.60;;
3299;SDS011;1662;49.310;8.134;2022-08-19T07:06:16;17.90;;;16.10;;
3299;SDS011;1662;49.310;8.134;2022-08-19T07:08:45;14.30;;;13.10;;
3299;SDS011;1662;49.310;8.134;2022-08-19T07:11:13;12.87;;;11.87;;
3299;SDS011;1662;49.310;8.134;2022-08-19T07:13:42;15.83;;;14.43;;
3299;SDS011;1662;49.310;8.134;2022-08-19T07:16:12;15.50;;;14.17;;
3299;SDS011;1662;49.310;8.134;2022-08-19T07:18:39;15.70;;;14.30;;
3299;SDS011;1662;49.310;8.134;2022-08-19T07:21:07;14.90;;;13.50;;
3299;SDS011;1662;49.310;8.134;2022-08-19T07:23:37;15.07;;;13.47;;
3299;SDS011;1662;49.310;8.134;2022-08-19T07:26:09;11.53;;;10.53;;
3299;SDS011;1662;49.310;8.134;2022-08-19T07:28:37;16.33;;;14.67;;
3299;SDS011;1662;49.310;8.134;2022-08-19T07:31:05;16.77;;;15.07;;
3299;SDS011;1662;49.310;8.134;2022-08-19T07:33:54;15.27;;;13.87;;
3299;SDS011;1662;49.310;8.134;2022-08-19T07:36:23;16.53;;;15.13;;
3299;SDS011;1662;49.310;8.134;2022-08-19T07:38:55;14.10;;;12.53;;
3299;SDS011;1662;49.310;8.134;2022-08-19T07:41:22;14.50;;;13.23;;
3299;SDS011;1662;49.310;8.134;2022-08-19T07:43:50;17.43;;;15.83;;
3299;SDS011;1662;49.310;8.134;2022-08-19T07:46:16;16.77;;;14.80;;
3299;SDS011;1662;49.310;8.134;2022-08-19T07:48:43;16.07;;;14.67;;
3299;SDS011;1662;49.310;8.134;2022-08-19T07:51:14;14.03;;;12.73;;
3299;SDS011;1662;49.310;8.134;2022-08-19T07:53:41;12.43;;;11.47;;
3299;SDS011;1662;49.310;8.134;2022-08-19T07:56:09;15.90;;;14.40;;
3299;SDS011;1662;49.310;8.134;2022-08-19T07:58:37;12.03;;;11.03;;
3299;SDS011;1662;49.310;8.134;2022-08-19T08:01:05;14.83;;;13.13;;
3299;SDS011;1662;49.310;8.134;2022-08-19T08:03:32;15.33;;;13.83;;
3299;SDS011;1662;49.310;8.134;2022-08-19T08:06:16;13.00;;;12.00;;
3299;SDS011;1662;49.310;8.134;2022-08-19T08:09:01;14.57;;;13.37;;
3299;SDS011;1662;49.310;8.134;2022-08-19T08:11:41;12.90;;;11.90;;
3299;SDS011;1662;49.310;8.134;2022-08-19T08:14:33;13.37;;;12.30;;
3299;SDS011;1662;49.310;8.134;2022-08-19T08:17:06;13.10;;;12.10;;
3299;SDS011;1662;49.310;8.134;2022-08-19T08:19:33;13.10;;;12.10;;
3299;SDS011;1662;49.310;8.134;2022-08-19T08:21:59;11.80;;;10.80;;
3299;SDS011;1662;49.310;8.134;2022-08-19T08:24:26;13.43;;;12.43;;
3299;SDS011;1662;49.310;8.134;2022-08-19T08:26:56;14.23;;;12.73;;
3299;SDS011;1662;49.310;8.134;2022-08-19T08:29:24;14.60;;;13.27;;
3299;SDS011;1662;49.310;8.134;2022-08-19T08:31:51;12.70;;;11.60;;
3299;SDS011;1662;49.310;8.134;2022-08-19T08:34:17;13.13;;;12.13;;
3299;SDS011;1662;49.310;8.134;2022-08-19T08:36:44;13.00;;;12.00;;
3299;SDS011;1662;49.310;8.134;2022-08-19T08:39:12;11.27;;;10.47;;
3299;SDS011;1662;49.310;8.134;2022-08-19T08:44:27;11.83;;;10.83;;
3299;SDS011;1662;49.310;8.134;2022-08-19T08:47:05;14.00;;;12.90;;
3299;SDS011;1662;49.310;8.134;2022-08-19T08:49:43;12.27;;;11.50;;
3299;SDS011;1662;49.310;8.134;2022-08-19T08:52:18;10.90;;;10.23;;
3299;SDS011;1662;49.310;8.134;2022-08-19T08:54:53;9.93;;;9.30;;
3299;SDS011;1662;49.310;8.134;2022-08-19T08:57:27;10.57;;;9.77;;
3299;SDS011;1662;49.310;8.134;2022-08-19T08:59:53;11.00;;;9.87;;
3299;SDS011;1662;49.310;8.134;2022-08-19T09:02:22;12.23;;;11.40;;
3299;SDS011;1662;49.310;8.134;2022-08-19T09:04:47;11.63;;;10.93;;
3299;SDS011;1662;49.310;8.134;2022-08-19T09:09:52;9.83;;;9.23;;
3299;SDS011;1662;49.310;8.134;2022-08-19T09:15:32;11.80;;;10.90;;
3299;SDS011;1662;49.310;8.134;2022-08-19T09:18:04;11.73;;;10.93;;
3299;SDS011;1662;49.310;8.134;2022-08-19T09:20:31;12.87;;;12.17;;
3299;SDS011;1662;49.310;8.134;2022-08-19T09:22:57;13.27;;;12.57;;
3299;SDS011;1662;49.310;8.134;2022-08-19T09:25:23;13.90;;;13.10;;
3299;SDS011;1662;49.310;8.134;2022-08-19T09:27:50;13.27;;;12.57;;
3299;SDS011;1662;49.310;8.134;2022-08-19T09:30:20;13.77;;;12.97;;
3299;SDS011;1662;49.310;8.134;2022-08-19T09:32:48;14.00;;;13.20;;
3299;SDS011;1662;49.310;8.134;2022-08-19T09:35:14;13.87;;;13.07;;
3299;SDS011;1662;49.310;8.134;2022-08-19T09:37:40;12.10;;;11.30;;
3299;SDS011;1662;49.310;8.134;2022-08-19T09:40:08;18.60;;;17.33;;
3299;SDS011;1662;49.310;8.134;2022-08-19T09:42:34;17.33;;;16.43;;
3299;SDS011;1662;49.310;8.134;2022-08-19T09:45:02;17.47;;;16.67;;
3299;SDS011;1662;49.310;8.134;2022-08-19T09:47:29;17.97;;;17.07;;
3299;SDS011;1662;49.310;8.134;2022-08-19T09:49:55;18.17;;;17.17;;
3299;SDS011;1662;49.310;8.134;2022-08-19T09:52:20;19.27;;;17.83;;
3299;SDS011;1662;49.310;8.134;2022-08-19T09:54:46;17.83;;;16.83;;
3299;SDS011;1662;49.310;8.134;2022-08-19T09:57:12;13.63;;;12.90;;
3299;SDS011;1662;49.310;8.134;2022-08-19T09:59:38;18.83;;;17.73;;
3299;SDS011;1662;49.310;8.134;2022-08-19T10:02:04;18.10;;;17.10;;
3299;SDS011;1662;49.310;8.134;2022-08-19T10:04:29;18.27;;;17.47;;
3299;SDS011;1662;49.310;8.134;2022-08-19T10:07:14;10.03;;;9.43;;
3299;SDS011;1662;49.310;8.134;2022-08-19T10:09:40;19.43;;;18.43;;
3299;SDS011;1662;49.310;8.134;2022-08-19T10:12:08;18.83;;;17.93;;
3299;SDS011;1662;49.310;8.134;2022-08-19T10:14:34;16.20;;;15.40;;
3299;SDS011;1662;49.310;8.134;2022-08-19T10:17:00;13.27;;;12.43;;
3299;SDS011;1662;49.310;8.134;2022-08-19T10:19:27;11.97;;;11.20;;
3299;SDS011;1662;49.310;8.134;2022-08-19T10:21:57;12.20;;;11.40;;
3299;SDS011;1662;49.310;8.134;2022-08-19T10:24:22;11.43;;;10.90;;
3299;SDS011;1662;49.310;8.134;2022-08-19T10:26:51;16.00;;;15.20;;
3299;SDS011;1662;49.310;8.134;2022-08-19T10:29:18;22.13;;;20.83;;
3299;SDS011;1662;49.310;8.134;2022-08-19T10:31:43;16.07;;;15.23;;
3299;SDS011;1662;49.310;8.134;2022-08-19T10:34:09;13.90;;;13.00;;
3299;SDS011;1662;49.310;8.134;2022-08-19T10:36:36;14.30;;;13.30;;
3299;SDS011;1662;49.310;8.134;2022-08-19T10:39:07;13.70;;;12.90;;
3299;SDS011;1662;49.310;8.134;2022-08-19T10:41:35;14.23;;;13.47;;
3299;SDS011;1662;49.310;8.134;2022-08-19T10:44:08;12.93;;;12.23;;
3299;SDS011;1662;49.310;8.134;2022-08-19T10:46:36;22.80;;;21.50;;
3299;SDS011;1662;49.310;8.134;2022-08-19T10:49:05;21.07;;;20.07;;
3299;SDS011;1662;49.310;8.134;2022-08-19T10:51:33;15.93;;;14.67;;
3299;SDS011;1662;49.310;8.134;2022-08-19T10:54:18;20.37;;;19.33;;
3299;SDS011;1662;49.310;8.134;2022-08-19T10:56:44;20.20;;;19.13;;
3299;SDS011;1662;49.310;8.134;2022-08-19T10:59:20;14.90;;;14.10;;
3299;SDS011;1662;49.310;8.134;2022-08-19T11:01:52;15.97;;;14.33;;
3299;SDS011;1662;49.310;8.134;2022-08-19T11:04:19;15.27;;;14.30;;
3299;SDS011;1662;49.310;8.134;2022-08-19T11:06:47;15.73;;;14.50;;
3299;SDS011;1662;49.310;8.134;2022-08-19T11:09:17;16.50;;;15.40;;
3299;SDS011;1662;49.310;8.134;2022-08-19T11:11:54;16.90;;;15.93;;
3299;SDS011;1662;49.310;8.134;2022-08-19T11:14:21;21.40;;;20.10;;
3299;SDS011;1662;49.310;8.134;2022-08-19T11:16:50;23.03;;;21.83;;
3299;SDS011;1662;49.310;8.134;2022-08-19T11:19:20;16.23;;;15.23;;
3299;SDS011;1662;49.310;8.134;2022-08-19T11:21:49;25.00;;;23.80;;
3299;SDS011;1662;49.310;8.134;2022-08-19T11:24:20;17.57;;;16.23;;
3299;SDS011;1662;49.310;8.134;2022-08-19T11:26:48;16.30;;;15.40;;
3299;SDS011;1662;49.310;8.134;2022-08-19T11:29:16;23.70;;;22.60;;
3299;SDS011;1662;49.310;8.134;2022-08-19T11:31:44;22.30;;;21.00;;
3299;SDS011;1662;49.310;8.134;2022-08-19T11:34:13;18.57;;;17.33;;
3299;SDS011;1662;49.310;8.134;2022-08-19T11:36:44;18.07;;;16.97;;
3299;SDS011;1662;49.310;8.134;2022-08-19T11:39:11;21.40;;;20.10;;
3299;SDS011;1662;49.310;8.134;2022-08-19T11:41:38;25.63;;;24.33;;
3299;SDS011;1662;49.310;8.134;2022-08-19T11:44:06;21.23;;;20.20;;
3299;SDS011;1662;49.310;8.134;2022-08-19T11:46:33;21.87;;;20.87;;
3299;SDS011;1662;49.310;8.134;2022-08-19T11:49:02;23.77;;;22.47;;
3299;SDS011;1662;49.310;8.134;2022-08-19T11:51:30;14.87;;;14.13;;
3299;SDS011;1662;49.310;8.134;2022-08-19T11:53:56;19.03;;;18.23;;
3299;SDS011;1662;49.310;8.134;2022-08-19T11:56:23;19.83;;;18.97;;
3299;SDS011;1662;49.310;8.134;2022-08-19T11:58:53;18.90;;;17.90;;
3299;SDS011;1662;49.310;8.134;2022-08-19T12:01:21;18.10;;;17.30;;
3299;SDS011;1662;49.310;8.134;2022-08-19T12:03:49;16.37;;;15.77;;
3299;SDS011;1662;49.310;8.134;2022-08-19T12:06:18;18.30;;;17.50;;
3299;SDS011;1662;49.310;8.134;2022-08-19T12:08:53;18.43;;;17.73;;
3299;SDS011;1662;49.310;8.134;2022-08-19T12:11:20;18.90;;;18.20;;
3299;SDS011;1662;49.310;8.134;2022-08-19T12:13:49;17.60;;;16.90;;
3299;SDS011;1662;49.310;8.134;2022-08-19T12:16:19;19.17;;;18.40;;
3299;SDS011;1662;49.310;8.134;2022-08-19T12:18:47;18.03;;;17.33;;
3299;SDS011;1662;49.310;8.134;2022-08-19T12:21:17;17.90;;;17.30;;
3299;SDS011;1662;49.310;8.134;2022-08-19T12:23:47;19.43;;;18.63;;
3299;SDS011;1662;49.310;8.134;2022-08-19T12:26:14;19.10;;;18.30;;
3299;SDS011;1662;49.310;8.134;2022-08-19T12:28:41;18.47;;;17.37;;
3299;SDS011;1662;49.310;8.134;2022-08-19T12:31:07;20.27;;;19.30;;
3299;SDS011;1662;49.310;8.134;2022-08-19T12:33:33;18.10;;;17.40;;
3299;SDS011;1662;49.310;8.134;2022-08-19T12:36:05;10.77;;;10.37;;
3299;SDS011;1662;49.310;8.134;2022-08-19T12:38:34;14.90;;;14.30;;
3299;SDS011;1662;49.310;8.134;2022-08-19T12:41:02;21.07;;;20.27;;
3299;SDS011;1662;49.310;8.134;2022-08-19T12:43:31;10.13;;;9.73;;
3299;SDS011;1662;49.310;8.134;2022-08-19T12:45:57;20.07;;;19.07;;
3299;SDS011;1662;49.310;8.134;2022-08-19T12:48:25;17.83;;;17.03;;
3299;SDS011;1662;49.310;8.134;2022-08-19T12:50:50;14.20;;;13.60;;
3299;SDS011;1662;49.310;8.134;2022-08-19T12:53:16;19.30;;;18.60;;
3299;SDS011;1662;49.310;8.134;2022-08-19T12:55:42;11.13;;;10.73;;
3299;SDS011;1662;49.310;8.134;2022-08-19T12:58:08;21.17;;;20.07;;
3299;SDS011;1662;49.310;8.134;2022-08-19T13:00:34;20.20;;;19.30;;
3299;SDS011;1662;49.310;8.134;2022-08-19T13:03:02;19.70;;;18.60;;
3299;SDS011;1662;49.310;8.134;2022-08-19T13:05:29;18.17;;;17.57;;
3299;SDS011;1662;49.310;8.134;2022-08-19T13:07:57;12.67;;;12.23;;
3299;SDS011;1662;49.310;8.134;2022-08-19T13:10:26;18.43;;;17.73;;
3299;SDS011;1662;49.310;8.134;2022-08-19T13:12:54;16.97;;;16.37;;
3299;SDS011;1662;49.310;8.134;2022-08-19T13:15:21;16.53;;;15.63;;
3299;SDS011;1662;49.310;8.134;2022-08-19T13:17:48;16.63;;;16.03;;
3299;SDS011;1662;49.310;8.134;2022-08-19T13:20:16;12.10;;;11.63;;
3299;SDS011;1662;49.310;8.134;2022-08-19T13:22:43;12.10;;;11.70;;
3299;SDS011;1662;49.310;8.134;2022-08-19T13:25:13;16.30;;;15.70;;
3299;SDS011;1662;49.310;8.134;2022-08-19T13:27:42;10.50;;;10.20;;
3299;SDS011;1662;49.310;8.134;2022-08-19T13:30:09;9.57;;;9.27;;
3299;SDS011;1662;49.310;8.134;2022-08-19T13:32:55;10.13;;;9.70;;
3299;SDS011;1662;49.310;8.134;2022-08-19T13:35:47;10.97;;;10.57;;
3299;SDS011;1662;49.310;8.134;2022-08-19T13:38:18;11.07;;;10.57;;
3299;SDS011;1662;49.310;8.134;2022-08-19T13:40:45;11.30;;;10.80;;
3299;SDS011;1662;49.310;8.134;2022-08-19T13:43:12;11.37;;;10.87;;
3299;SDS011;1662;49.310;8.134;2022-08-19T13:45:38;11.57;;;11.07;;
3299;SDS011;1662;49.310;8.134;2022-08-19T13:48:05;11.43;;;10.93;;
3299;SDS011;1662;49.310;8.134;2022-08-19T13:50:33;10.83;;;10.43;;
3299;SDS011;1662;49.310;8.134;2022-08-19T13:53:06;12.30;;;11.53;;
3299;SDS011;1662;49.310;8.134;2022-08-19T13:55:33;11.90;;;11.40;;
3299;SDS011;1662;49.310;8.134;2022-08-19T13:57:59;12.80;;;12.30;;
3299;SDS011;1662;49.310;8.134;2022-08-19T14:00:27;12.20;;;11.60;;
3299;SDS011;1662;49.310;8.134;2022-08-19T14:02:56;11.77;;;11.23;;
3299;SDS011;1662;49.310;8.134;2022-08-19T14:05:23;11.50;;;11.00;;
3299;SDS011;1662;49.310;8.134;2022-08-19T14:07:50;11.83;;;11.13;;
3299;SDS011;1662;49.310;8.134;2022-08-19T14:10:16;12.00;;;11.50;;
3299;SDS011;1662;49.310;8.134;2022-08-19T14:12:42;11.30;;;10.80;;
3299;SDS011;1662;49.310;8.134;2022-08-19T14:15:10;11.20;;;10.70;;
3299;SDS011;1662;49.310;8.134;2022-08-19T14:17:43;10.67;;;10.27;;
3299;SDS011;1662;49.310;8.134;2022-08-19T14:20:13;11.60;;;10.97;;
3299;SDS011;1662;49.310;8.134;2022-08-19T14:22:41;11.27;;;10.77;;
3299;SDS011;1662;49.310;8.134;2022-08-19T14:25:08;12.37;;;11.77;;
3299;SDS011;1662;49.310;8.134;2022-08-19T14:27:37;15.60;;;14.70;;
3299;SDS011;1662;49.310;8.134;2022-08-19T14:30:06;15.10;;;14.50;;
3299;SDS011;1662;49.310;8.134;2022-08-19T14:32:33;14.07;;;13.47;;
3299;SDS011;1662;49.310;8.134;2022-08-19T14:35:00;15.70;;;15.00;;
3299;SDS011;1662;49.310;8.134;2022-08-19T14:37:29;19.90;;;19.20;;
3299;SDS011;1662;49.310;8.134;2022-08-19T14:39:57;15.00;;;14.40;;
3299;SDS011;1662;49.310;8.134;2022-08-19T14:42:23;15.47;;;14.67;;
3299;SDS011;1662;49.310;8.134;2022-08-19T14:44:48;15.27;;;14.57;;
3299;SDS011;1662;49.310;8.134;2022-08-19T14:47:14;14.93;;;14.23;;
3299;SDS011;1662;49.310;8.134;2022-08-19T14:49:40;12.90;;;12.30;;
3299;SDS011;1662;49.310;8.134;2022-08-19T14:52:05;12.97;;;12.37;;
3299;SDS011;1662;49.310;8.134;2022-08-19T14:54:31;11.93;;;11.53;;
3299;SDS011;1662;49.310;8.134;2022-08-19T14:56:57;13.10;;;12.30;;
3299;SDS011;1662;49.310;8.134;2022-08-19T14:59:22;12.30;;;11.67;;
3299;SDS011;1662;49.310;8.134;2022-08-19T15:01:48;12.70;;;12.10;;
3299;SDS011;1662;49.310;8.134;2022-08-19T15:04:14;12.60;;;12.00;;
3299;SDS011;1662;49.310;8.134;2022-08-19T15:06:40;13.43;;;12.60;;
3299;SDS011;1662;49.310;8.134;2022-08-19T15:09:07;13.50;;;12.70;;
3299;SDS011;1662;49.310;8.134;2022-08-19T15:11:33;13.80;;;13.10;;
3299;SDS011;1662;49.310;8.134;2022-08-19T15:13:59;13.00;;;12.50;;